sensor_id;sensor_type;location;lat;lon;timestamp;P1;durP1;ratioP1;P2;durP2;ratioP2
8092;SDS011;4089;52.420;13.334;2024-01-30T00:00:20;28.00;;;6.90;;
8092;SDS011;4089;52.420;13.334;2024-01-30T00:02:47;28.77;;;6.73;;
8092;SDS011;4089;52.420;13.334;2024-01-30T00:05:14;29.93;;;6.97;;
8092;SDS011;4089;52.420;13.334;2024-01-30T00:07:41;28.70;;;7.30;;
8092;SDS011;4089;52.420;13.334;2024-01-30T00:10:07;28.43;;;6.63;;
8092;SDS011;4089;52.420;13.334;2024-01-30T00:12:34;27.70;;;7.20;;
8092;SDS011;4089;52.420;13.334;2024-01-30T00:15:01;26.67;;;6.83;;
8092;SDS011;4089;52.420;13.334;2024-01-30T00:17:30;27.07;;;6.63;;
8092;SDS011;4089;52.420;13.334;2024-01-30T00:19:57;30.20;;;6.90;;
8092;SDS011;4089;52.420;13.334;2024-01-30T00:22:24;32.67;;;7.13;;
8092;SDS011;4089;52.420;13.334;2024-01-30T00:24:51;32.10;;;7.10;;
8092;SDS011;4089;52.420;13.334;2024-01-30T00:27:18;29.20;;;7.07;;
8092;SDS011;4089;52.420;13.334;2024-01-30T00:29:45;36.10;;;7.67;;
8092;SDS011;4089;52.420;13.334;2024-01-30T00:32:11;29.80;;;6.90;;
8092;SDS011;4089;52.420;13.334;2024-01-30T00:34:38;29.90;;;7.60;;
8092;SDS011;4089;52.420;13.334;2024-01-30T00:37:05;27.97;;;6.67;;
8092;SDS011;4089;52.420;13.334;2024-01-30T00:39:32;29.90;;;7.83;;
8092;SDS011;4089;52.420;13.334;2024-01-30T00:41:59;30.33;;;7.00;;
8092;SDS011;4089;52.420;13.334;2024-01-30T00:44:26;31.93;;;8.10;;
8092;SDS011;4089;52.420;13.334;2024-01-30T00:46:53;31.47;;;7.87;;
8092;SDS011;4089;52.420;13.334;2024-01-30T00:49:20;29.97;;;7.90;;
8092;SDS011;4089;52.420;13.334;2024-01-30T00:51:46;31.07;;;7.40;;
8092;SDS011;4089;52.420;13.334;2024-01-30T00:54:13;26.73;;;6.37;;
8092;SDS011;4089;52.420;13.334;2024-01-30T00:56:40;28.83;;;7.00;;
8092;SDS011;4089;52.420;13.334;2024-01-30T00:59:07;29.77;;;7.43;;
8092;SDS011;4089;52.420;13.334;2024-01-30T01:01:34;28.13;;;7.20;;
8092;SDS011;4089;52.420;13.334;2024-01-30T01:04:00;29.77;;;7.47;;
8092;SDS011;4089;52.420;13.334;2024-01-30T01:06:28;30.73;;;6.90;;
8092;SDS011;4089;52.420;13.334;2024-01-30T01:08:55;30.10;;;6.50;;
8092;SDS011;4089;52.420;13.334;2024-01-30T01:11:22;28.43;;;6.73;;
8092;SDS011;4089;52.420;13.334;2024-01-30T01:13:48;29.07;;;7.37;;
8092;SDS011;4089;52.420;13.334;2024-01-30T01:16:15;33.13;;;8.17;;
8092;SDS011;4089;52.420;13.334;2024-01-30T01:18:42;30.93;;;7.30;;
8092;SDS011;4089;52.420;13.334;2024-01-30T01:21:09;31.20;;;7.30;;
8092;SDS011;4089;52.420;13.334;2024-01-30T01:23:36;27.63;;;7.40;;
8092;SDS011;4089;52.420;13.334;2024-01-30T01:26:02;32.23;;;6.80;;
8092;SDS011;4089;52.420;13.334;2024-01-30T01:28:29;29.73;;;7.63;;
8092;SDS011;4089;52.420;13.334;2024-01-30T01:30:56;29.20;;;8.13;;
8092;SDS011;4089;52.420;13.334;2024-01-30T01:33:27;29.57;;;7.60;;
8092;SDS011;4089;52.420;13.334;2024-01-30T01:35:54;29.97;;;7.63;;
8092;SDS011;4089;52.420;13.334;2024-01-30T01:38:21;27.13;;;6.80;;
8092;SDS011;4089;52.420;13.334;2024-01-30T01:40:47;29.47;;;7.63;;
8092;SDS011;4089;52.420;13.334;2024-01-30T01:43:14;28.37;;;7.40;;
8092;SDS011;4089;52.420;13.334;2024-01-30T01:45:41;28.87;;;7.13;;
8092;SDS011;4089;52.420;13.334;2024-01-30T01:48:08;35.30;;;7.60;;
8092;SDS011;4089;52.420;13.334;2024-01-30T01:50:35;30.53;;;6.80;;
8092;SDS011;4089;52.420;13.334;2024-01-30T01:53:03;28.70;;;6.87;;
8092;SDS011;4089;52.420;13.334;2024-01-30T01:55:34;31.97;;;7.53;;
8092;SDS011;4089;52.420;13.334;2024-01-30T01:58:02;32.57;;;8.23;;
8092;SDS011;4089;52.420;13.334;2024-01-30T02:00:29;28.03;;;7.00;;
8092;SDS011;4089;52.420;13.334;2024-01-30T02:02:57;29.60;;;7.83;;
8092;SDS011;4089;52.420;13.334;2024-01-30T02:05:25;30.37;;;7.50;;
8092;SDS011;4089;52.420;13.334;2024-01-30T02:07:52;29.67;;;8.17;;
8092;SDS011;4089;52.420;13.334;2024-01-30T02:10:20;33.90;;;8.10;;
8092;SDS011;4089;52.420;13.334;2024-01-30T02:12:48;30.10;;;7.37;;
8092;SDS011;4089;52.420;13.334;2024-01-30T02:15:15;25.90;;;6.80;;
8092;SDS011;4089;52.420;13.334;2024-01-30T02:17:42;31.10;;;7.73;;
8092;SDS011;4089;52.420;13.334;2024-01-30T02:20:09;31.67;;;8.30;;
8092;SDS011;4089;52.420;13.334;2024-01-30T02:22:36;31.67;;;8.30;;
8092;SDS011;4089;52.420;13.334;2024-01-30T02:25:04;32.33;;;7.40;;
8092;SDS011;4089;52.420;13.334;2024-01-30T02:27:31;30.70;;;7.20;;
8092;SDS011;4089;52.420;13.334;2024-01-30T02:29:58;33.70;;;6.93;;
8092;SDS011;4089;52.420;13.334;2024-01-30T02:32:25;33.70;;;8.13;;
8092;SDS011;4089;52.420;13.334;2024-01-30T02:34:52;30.37;;;7.10;;
8092;SDS011;4089;52.420;13.334;2024-01-30T02:37:19;24.93;;;6.80;;
8092;SDS011;4089;52.420;13.334;2024-01-30T02:39:45;34.37;;;8.27;;
8092;SDS011;4089;52.420;13.334;2024-01-30T02:42:12;28.30;;;7.20;;
8092;SDS011;4089;52.420;13.334;2024-01-30T02:44:39;33.97;;;8.00;;
8092;SDS011;4089;52.420;13.334;2024-01-30T02:47:06;28.40;;;7.30;;
8092;SDS011;4089;52.420;13.334;2024-01-30T02:49:33;32.17;;;7.60;;
8092;SDS011;4089;52.420;13.334;2024-01-30T02:52:00;27.97;;;6.80;;
8092;SDS011;4089;52.420;13.334;2024-01-30T02:54:27;27.23;;;6.87;;
8092;SDS011;4089;52.420;13.334;2024-01-30T02:56:53;25.73;;;6.80;;
8092;SDS011;4089;52.420;13.334;2024-01-30T02:59:20;33.40;;;7.40;;
8092;SDS011;4089;52.420;13.334;2024-01-30T03:01:47;29.40;;;8.03;;
8092;SDS011;4089;52.420;13.334;2024-01-30T03:04:14;27.40;;;7.13;;
8092;SDS011;4089;52.420;13.334;2024-01-30T03:06:44;30.10;;;7.90;;
8092;SDS011;4089;52.420;13.334;2024-01-30T03:09:15;32.00;;;7.90;;
8092;SDS011;4089;52.420;13.334;2024-01-30T03:11:45;28.40;;;7.30;;
8092;SDS011;4089;52.420;13.334;2024-01-30T03:14:12;28.67;;;7.30;;
8092;SDS011;4089;52.420;13.334;2024-01-30T03:16:38;33.30;;;7.77;;
8092;SDS011;4089;52.420;13.334;2024-01-30T03:19:06;29.80;;;7.00;;
8092;SDS011;4089;52.420;13.334;2024-01-30T03:21:34;29.60;;;7.53;;
8092;SDS011;4089;52.420;13.334;2024-01-30T03:24:01;29.70;;;8.00;;
8092;SDS011;4089;52.420;13.334;2024-01-30T03:26:28;28.27;;;7.63;;
8092;SDS011;4089;52.420;13.334;2024-01-30T03:28:55;31.23;;;7.67;;
8092;SDS011;4089;52.420;13.334;2024-01-30T03:31:22;29.33;;;7.80;;
8092;SDS011;4089;52.420;13.334;2024-01-30T03:33:49;39.33;;;8.33;;
8092;SDS011;4089;52.420;13.334;2024-01-30T03:36:15;34.60;;;8.80;;
8092;SDS011;4089;52.420;13.334;2024-01-30T03:38:43;28.97;;;7.33;;
8092;SDS011;4089;52.420;13.334;2024-01-30T03:41:10;28.37;;;8.00;;
8092;SDS011;4089;52.420;13.334;2024-01-30T03:43:37;33.00;;;8.20;;
8092;SDS011;4089;52.420;13.334;2024-01-30T03:46:03;31.37;;;7.17;;
8092;SDS011;4089;52.420;13.334;2024-01-30T03:48:30;31.30;;;7.90;;
8092;SDS011;4089;52.420;13.334;2024-01-30T03:50:57;31.83;;;7.83;;
8092;SDS011;4089;52.420;13.334;2024-01-30T03:53:24;32.87;;;8.63;;
8092;SDS011;4089;52.420;13.334;2024-01-30T03:55:51;30.97;;;7.50;;
8092;SDS011;4089;52.420;13.334;2024-01-30T03:58:17;29.53;;;7.40;;
8092;SDS011;4089;52.420;13.334;2024-01-30T04:00:44;27.10;;;6.90;;
8092;SDS011;4089;52.420;13.334;2024-01-30T04:03:11;32.17;;;8.70;;
8092;SDS011;4089;52.420;13.334;2024-01-30T04:05:38;31.50;;;8.13;;
8092;SDS011;4089;52.420;13.334;2024-01-30T04:08:05;31.20;;;8.00;;
8092;SDS011;4089;52.420;13.334;2024-01-30T04:10:32;30.20;;;8.77;;
8092;SDS011;4089;52.420;13.334;2024-01-30T04:12:59;29.67;;;7.87;;
8092;SDS011;4089;52.420;13.334;2024-01-30T04:15:27;30.70;;;8.47;;
8092;SDS011;4089;52.420;13.334;2024-01-30T04:17:58;28.20;;;7.63;;
8092;SDS011;4089;52.420;13.334;2024-01-30T04:20:25;30.33;;;7.80;;
8092;SDS011;4089;52.420;13.334;2024-01-30T04:22:52;30.50;;;8.10;;
8092;SDS011;4089;52.420;13.334;2024-01-30T04:25:19;35.10;;;8.70;;
8092;SDS011;4089;52.420;13.334;2024-01-30T04:27:46;30.53;;;8.37;;
8092;SDS011;4089;52.420;13.334;2024-01-30T04:30:13;36.70;;;8.50;;
8092;SDS011;4089;52.420;13.334;2024-01-30T04:32:41;30.43;;;8.60;;
8092;SDS011;4089;52.420;13.334;2024-01-30T04:35:07;36.40;;;8.80;;
8092;SDS011;4089;52.420;13.334;2024-01-30T04:37:37;36.50;;;8.17;;
8092;SDS011;4089;52.420;13.334;2024-01-30T04:40:04;31.90;;;8.53;;
8092;SDS011;4089;52.420;13.334;2024-01-30T04:42:32;32.13;;;7.30;;
8092;SDS011;4089;52.420;13.334;2024-01-30T04:44:59;30.80;;;8.00;;
8092;SDS011;4089;52.420;13.334;2024-01-30T04:47:25;30.70;;;8.40;;
8092;SDS011;4089;52.420;13.334;2024-01-30T04:49:52;30.67;;;8.47;;
8092;SDS011;4089;52.420;13.334;2024-01-30T04:52:19;32.40;;;7.97;;
8092;SDS011;4089;52.420;13.334;2024-01-30T04:54:47;34.17;;;8.23;;
8092;SDS011;4089;52.420;13.334;2024-01-30T04:57:14;31.97;;;7.93;;
8092;SDS011;4089;52.420;13.334;2024-01-30T04:59:40;32.67;;;8.30;;
8092;SDS011;4089;52.420;13.334;2024-01-30T05:02:07;27.93;;;7.70;;
8092;SDS011;4089;52.420;13.334;2024-01-30T05:04:34;32.43;;;8.63;;
8092;SDS011;4089;52.420;13.334;2024-01-30T05:07:01;33.07;;;7.87;;
8092;SDS011;4089;52.420;13.334;2024-01-30T05:09:28;34.50;;;8.73;;
8092;SDS011;4089;52.420;13.334;2024-01-30T05:11:55;31.03;;;7.37;;
8092;SDS011;4089;52.420;13.334;2024-01-30T05:14:22;36.03;;;9.10;;
8092;SDS011;4089;52.420;13.334;2024-01-30T05:16:49;32.37;;;8.43;;
8092;SDS011;4089;52.420;13.334;2024-01-30T05:19:15;30.97;;;7.57;;
8092;SDS011;4089;52.420;13.334;2024-01-30T05:21:44;28.23;;;7.40;;
8092;SDS011;4089;52.420;13.334;2024-01-30T05:24:11;30.87;;;9.13;;
8092;SDS011;4089;52.420;13.334;2024-01-30T05:26:38;30.77;;;7.60;;
8092;SDS011;4089;52.420;13.334;2024-01-30T05:29:05;33.20;;;8.70;;
8092;SDS011;4089;52.420;13.334;2024-01-30T05:31:32;34.13;;;7.67;;
8092;SDS011;4089;52.420;13.334;2024-01-30T05:34:00;29.67;;;8.20;;
8092;SDS011;4089;52.420;13.334;2024-01-30T05:36:28;32.23;;;8.83;;
8092;SDS011;4089;52.420;13.334;2024-01-30T05:38:55;33.43;;;7.67;;
8092;SDS011;4089;52.420;13.334;2024-01-30T05:41:22;28.70;;;8.30;;
8092;SDS011;4089;52.420;13.334;2024-01-30T05:43:49;32.00;;;8.73;;
8092;SDS011;4089;52.420;13.334;2024-01-30T05:46:16;31.10;;;10.30;;
8092;SDS011;4089;52.420;13.334;2024-01-30T05:48:44;34.07;;;8.83;;
8092;SDS011;4089;52.420;13.334;2024-01-30T05:51:11;32.73;;;10.07;;
8092;SDS011;4089;52.420;13.334;2024-01-30T05:53:38;31.20;;;9.00;;
8092;SDS011;4089;52.420;13.334;2024-01-30T05:56:05;34.20;;;10.10;;
8092;SDS011;4089;52.420;13.334;2024-01-30T05:58:32;30.47;;;9.77;;
8092;SDS011;4089;52.420;13.334;2024-01-30T06:00:59;37.30;;;9.67;;
8092;SDS011;4089;52.420;13.334;2024-01-30T06:03:26;34.80;;;9.87;;
8092;SDS011;4089;52.420;13.334;2024-01-30T06:05:53;36.93;;;9.60;;
8092;SDS011;4089;52.420;13.334;2024-01-30T06:08:19;34.90;;;9.23;;
8092;SDS011;4089;52.420;13.334;2024-01-30T06:10:46;33.90;;;9.80;;
8092;SDS011;4089;52.420;13.334;2024-01-30T06:13:14;33.40;;;9.97;;
8092;SDS011;4089;52.420;13.334;2024-01-30T06:15:41;32.83;;;10.43;;
8092;SDS011;4089;52.420;13.334;2024-01-30T06:18:08;30.00;;;9.30;;
8092;SDS011;4089;52.420;13.334;2024-01-30T06:20:35;38.53;;;9.87;;
8092;SDS011;4089;52.420;13.334;2024-01-30T06:23:02;33.03;;;10.03;;
8092;SDS011;4089;52.420;13.334;2024-01-30T06:25:29;33.10;;;9.23;;
8092;SDS011;4089;52.420;13.334;2024-01-30T06:27:56;30.53;;;8.63;;
8092;SDS011;4089;52.420;13.334;2024-01-30T06:30:23;36.67;;;9.33;;
8092;SDS011;4089;52.420;13.334;2024-01-30T06:32:52;34.30;;;8.90;;
8092;SDS011;4089;52.420;13.334;2024-01-30T06:35:19;33.63;;;9.37;;
8092;SDS011;4089;52.420;13.334;2024-01-30T06:37:47;41.53;;;10.17;;
8092;SDS011;4089;52.420;13.334;2024-01-30T06:40:14;36.53;;;9.50;;
8092;SDS011;4089;52.420;13.334;2024-01-30T06:42:41;32.20;;;9.63;;
8092;SDS011;4089;52.420;13.334;2024-01-30T06:45:08;31.67;;;9.57;;
8092;SDS011;4089;52.420;13.334;2024-01-30T06:47:35;29.00;;;9.27;;
8092;SDS011;4089;52.420;13.334;2024-01-30T06:50:02;35.63;;;9.33;;
8092;SDS011;4089;52.420;13.334;2024-01-30T06:52:29;32.40;;;9.20;;
8092;SDS011;4089;52.420;13.334;2024-01-30T06:54:56;37.80;;;8.77;;
8092;SDS011;4089;52.420;13.334;2024-01-30T06:57:24;32.93;;;9.20;;
8092;SDS011;4089;52.420;13.334;2024-01-30T06:59:57;33.47;;;9.80;;
8092;SDS011;4089;52.420;13.334;2024-01-30T07:02:24;35.57;;;9.70;;
8092;SDS011;4089;52.420;13.334;2024-01-30T07:04:50;39.93;;;9.33;;
8092;SDS011;4089;52.420;13.334;2024-01-30T07:07:17;32.30;;;9.70;;
8092;SDS011;4089;52.420;13.334;2024-01-30T07:09:45;31.50;;;9.17;;
8092;SDS011;4089;52.420;13.334;2024-01-30T07:12:13;33.30;;;8.53;;
8092;SDS011;4089;52.420;13.334;2024-01-30T07:14:40;31.40;;;8.80;;
8092;SDS011;4089;52.420;13.334;2024-01-30T07:17:07;36.77;;;9.90;;
8092;SDS011;4089;52.420;13.334;2024-01-30T07:19:34;33.40;;;8.60;;
8092;SDS011;4089;52.420;13.334;2024-01-30T07:22:01;33.03;;;9.87;;
8092;SDS011;4089;52.420;13.334;2024-01-30T07:24:28;31.03;;;8.67;;
8092;SDS011;4089;52.420;13.334;2024-01-30T07:26:54;32.73;;;9.17;;
8092;SDS011;4089;52.420;13.334;2024-01-30T07:29:21;30.70;;;8.83;;
8092;SDS011;4089;52.420;13.334;2024-01-30T07:31:48;34.30;;;10.27;;
8092;SDS011;4089;52.420;13.334;2024-01-30T07:34:15;36.10;;;8.90;;
8092;SDS011;4089;52.420;13.334;2024-01-30T07:36:42;39.00;;;9.60;;
8092;SDS011;4089;52.420;13.334;2024-01-30T07:39:09;31.57;;;9.67;;
8092;SDS011;4089;52.420;13.334;2024-01-30T07:41:36;35.10;;;8.57;;
8092;SDS011;4089;52.420;13.334;2024-01-30T07:44:03;31.23;;;8.53;;
8092;SDS011;4089;52.420;13.334;2024-01-30T07:46:30;31.40;;;9.10;;
8092;SDS011;4089;52.420;13.334;2024-01-30T07:48:57;36.33;;;9.80;;
8092;SDS011;4089;52.420;13.334;2024-01-30T07:51:24;31.63;;;9.30;;
8092;SDS011;4089;52.420;13.334;2024-01-30T07:53:51;32.80;;;9.47;;
8092;SDS011;4089;52.420;13.334;2024-01-30T07:56:18;31.77;;;9.60;;
8092;SDS011;4089;52.420;13.334;2024-01-30T07:58:45;32.60;;;9.50;;
8092;SDS011;4089;52.420;13.334;2024-01-30T08:01:12;33.00;;;9.50;;
8092;SDS011;4089;52.420;13.334;2024-01-30T08:03:39;36.63;;;10.20;;
8092;SDS011;4089;52.420;13.334;2024-01-30T08:06:07;37.90;;;9.93;;
8092;SDS011;4089;52.420;13.334;2024-01-30T08:08:34;31.17;;;9.60;;
8092;SDS011;4089;52.420;13.334;2024-01-30T08:11:01;33.37;;;8.93;;
8092;SDS011;4089;52.420;13.334;2024-01-30T08:13:28;33.47;;;9.90;;
8092;SDS011;4089;52.420;13.334;2024-01-30T08:15:55;36.23;;;9.30;;
8092;SDS011;4089;52.420;13.334;2024-01-30T08:18:22;37.80;;;10.60;;
8092;SDS011;4089;52.420;13.334;2024-01-30T08:20:49;32.60;;;9.27;;
8092;SDS011;4089;52.420;13.334;2024-01-30T08:23:15;31.90;;;9.70;;
8092;SDS011;4089;52.420;13.334;2024-01-30T08:25:42;35.07;;;9.47;;
8092;SDS011;4089;52.420;13.334;2024-01-30T08:28:09;31.60;;;9.37;;
8092;SDS011;4089;52.420;13.334;2024-01-30T08:30:36;31.40;;;8.83;;
8092;SDS011;4089;52.420;13.334;2024-01-30T08:33:05;31.83;;;8.83;;
8092;SDS011;4089;52.420;13.334;2024-01-30T08:35:32;31.70;;;8.97;;
8092;SDS011;4089;52.420;13.334;2024-01-30T08:38:00;35.47;;;9.00;;
8092;SDS011;4089;52.420;13.334;2024-01-30T08:40:27;33.00;;;9.30;;
8092;SDS011;4089;52.420;13.334;2024-01-30T08:42:55;33.80;;;9.23;;
8092;SDS011;4089;52.420;13.334;2024-01-30T08:45:22;32.70;;;9.17;;
8092;SDS011;4089;52.420;13.334;2024-01-30T08:47:49;31.53;;;8.27;;
8092;SDS011;4089;52.420;13.334;2024-01-30T08:50:16;32.43;;;9.03;;
8092;SDS011;4089;52.420;13.334;2024-01-30T08:52:42;36.87;;;9.67;;
8092;SDS011;4089;52.420;13.334;2024-01-30T08:55:12;32.60;;;9.60;;
8092;SDS011;4089;52.420;13.334;2024-01-30T08:57:39;39.67;;;9.50;;
8092;SDS011;4089;52.420;13.334;2024-01-30T09:00:06;33.23;;;9.03;;
8092;SDS011;4089;52.420;13.334;2024-01-30T09:02:35;33.07;;;9.37;;
8092;SDS011;4089;52.420;13.334;2024-01-30T09:05:02;31.90;;;8.50;;
8092;SDS011;4089;52.420;13.334;2024-01-30T09:07:30;31.00;;;8.10;;
8092;SDS011;4089;52.420;13.334;2024-01-30T09:09:56;29.57;;;8.90;;
8092;SDS011;4089;52.420;13.334;2024-01-30T09:12:24;33.00;;;8.80;;
8092;SDS011;4089;52.420;13.334;2024-01-30T09:14:50;32.03;;;8.43;;
8092;SDS011;4089;52.420;13.334;2024-01-30T09:17:17;42.27;;;9.03;;
8092;SDS011;4089;52.420;13.334;2024-01-30T09:19:46;32.17;;;8.30;;
8092;SDS011;4089;52.420;13.334;2024-01-30T09:22:13;31.07;;;8.67;;
8092;SDS011;4089;52.420;13.334;2024-01-30T09:24:40;32.13;;;8.23;;
8092;SDS011;4089;52.420;13.334;2024-01-30T09:27:07;31.80;;;8.80;;
8092;SDS011;4089;52.420;13.334;2024-01-30T09:29:34;34.07;;;8.80;;
8092;SDS011;4089;52.420;13.334;2024-01-30T09:32:03;32.83;;;9.30;;
8092;SDS011;4089;52.420;13.334;2024-01-30T09:34:31;31.37;;;8.43;;
8092;SDS011;4089;52.420;13.334;2024-01-30T09:36:59;32.60;;;8.30;;
8092;SDS011;4089;52.420;13.334;2024-01-30T09:39:26;32.33;;;8.53;;
8092;SDS011;4089;52.420;13.334;2024-01-30T09:44:55;28.70;;;8.37;;
8092;SDS011;4089;52.420;13.334;2024-01-30T09:47:22;31.23;;;7.77;;
8092;SDS011;4089;52.420;13.334;2024-01-30T09:49:50;33.20;;;8.63;;
8092;SDS011;4089;52.420;13.334;2024-01-30T09:52:17;37.47;;;8.33;;
8092;SDS011;4089;52.420;13.334;2024-01-30T09:54:45;34.17;;;7.70;;
8092;SDS011;4089;52.420;13.334;2024-01-30T09:57:13;28.80;;;7.53;;
8092;SDS011;4089;52.420;13.334;2024-01-30T09:59:41;33.13;;;7.63;;
8092;SDS011;4089;52.420;13.334;2024-01-30T10:02:10;28.20;;;7.30;;
8092;SDS011;4089;52.420;13.334;2024-01-30T10:04:37;28.60;;;7.30;;
8092;SDS011;4089;52.420;13.334;2024-01-30T10:07:05;31.97;;;7.70;;
8092;SDS011;4089;52.420;13.334;2024-01-30T10:09:33;35.00;;;7.80;;
8092;SDS011;4089;52.420;13.334;2024-01-30T10:12:01;29.93;;;7.53;;
8092;SDS011;4089;52.420;13.334;2024-01-30T10:14:30;30.53;;;7.50;;
8092;SDS011;4089;52.420;13.334;2024-01-30T10:16:57;32.60;;;7.13;;
8092;SDS011;4089;52.420;13.334;2024-01-30T10:19:24;29.37;;;7.50;;
8092;SDS011;4089;52.420;13.334;2024-01-30T10:21:51;33.70;;;8.33;;
8092;SDS011;4089;52.420;13.334;2024-01-30T10:24:18;26.97;;;7.27;;
8092;SDS011;4089;52.420;13.334;2024-01-30T10:26:50;33.43;;;7.50;;
8092;SDS011;4089;52.420;13.334;2024-01-30T10:29:17;31.23;;;8.10;;
8092;SDS011;4089;52.420;13.334;2024-01-30T10:31:44;30.13;;;7.27;;
8092;SDS011;4089;52.420;13.334;2024-01-30T10:34:11;31.03;;;7.37;;
8092;SDS011;4089;52.420;13.334;2024-01-30T10:36:48;28.23;;;7.00;;
8092;SDS011;4089;52.420;13.334;2024-01-30T10:39:17;31.27;;;7.43;;
8092;SDS011;4089;52.420;13.334;2024-01-30T10:41:44;31.00;;;7.77;;
8092;SDS011;4089;52.420;13.334;2024-01-30T10:44:15;28.47;;;6.50;;
8092;SDS011;4089;52.420;13.334;2024-01-30T10:46:49;32.03;;;7.83;;
8092;SDS011;4089;52.420;13.334;2024-01-30T10:49:22;31.03;;;7.10;;
8092;SDS011;4089;52.420;13.334;2024-01-30T10:51:51;32.10;;;7.60;;
8092;SDS011;4089;52.420;13.334;2024-01-30T10:54:19;30.03;;;7.43;;
8092;SDS011;4089;52.420;13.334;2024-01-30T10:56:47;29.97;;;7.40;;
8092;SDS011;4089;52.420;13.334;2024-01-30T10:59:15;29.10;;;7.67;;
8092;SDS011;4089;52.420;13.334;2024-01-30T11:01:42;32.20;;;8.23;;
8092;SDS011;4089;52.420;13.334;2024-01-30T11:04:10;29.23;;;7.10;;
8092;SDS011;4089;52.420;13.334;2024-01-30T11:06:41;32.57;;;7.60;;
8092;SDS011;4089;52.420;13.334;2024-01-30T11:09:10;32.53;;;6.90;;
8092;SDS011;4089;52.420;13.334;2024-01-30T11:11:51;32.90;;;7.97;;
8092;SDS011;4089;52.420;13.334;2024-01-30T11:14:29;30.80;;;7.30;;
8092;SDS011;4089;52.420;13.334;2024-01-30T11:16:57;29.83;;;7.60;;
8092;SDS011;4089;52.420;13.334;2024-01-30T11:19:30;36.33;;;8.27;;
8092;SDS011;4089;52.420;13.334;2024-01-30T11:21:57;33.67;;;8.40;;
8092;SDS011;4089;52.420;13.334;2024-01-30T11:24:25;34.23;;;8.43;;
8092;SDS011;4089;52.420;13.334;2024-01-30T11:26:56;31.23;;;7.17;;
8092;SDS011;4089;52.420;13.334;2024-01-30T11:29:27;30.00;;;8.07;;
8092;SDS011;4089;52.420;13.334;2024-01-30T11:31:55;42.57;;;7.40;;
8092;SDS011;4089;52.420;13.334;2024-01-30T11:34:23;31.80;;;7.50;;
8092;SDS011;4089;52.420;13.334;2024-01-30T11:36:59;28.87;;;7.63;;
8092;SDS011;4089;52.420;13.334;2024-01-30T11:39:31;30.53;;;7.20;;
8092;SDS011;4089;52.420;13.334;2024-01-30T11:41:58;31.27;;;7.80;;
8092;SDS011;4089;52.420;13.334;2024-01-30T11:44:26;28.00;;;7.07;;
8092;SDS011;4089;52.420;13.334;2024-01-30T11:46:53;30.83;;;6.97;;
8092;SDS011;4089;52.420;13.334;2024-01-30T11:49:20;34.37;;;7.83;;
8092;SDS011;4089;52.420;13.334;2024-01-30T11:51:47;31.40;;;7.23;;
8092;SDS011;4089;52.420;13.334;2024-01-30T11:54:18;31.13;;;6.80;;
8092;SDS011;4089;52.420;13.334;2024-01-30T11:56:45;30.80;;;7.73;;
8092;SDS011;4089;52.420;13.334;2024-01-30T11:59:12;33.50;;;9.30;;
8092;SDS011;4089;52.420;13.334;2024-01-30T12:01:41;32.93;;;7.77;;
8092;SDS011;4089;52.420;13.334;2024-01-30T12:04:08;30.43;;;8.40;;
8092;SDS011;4089;52.420;13.334;2024-01-30T12:06:37;32.57;;;8.33;;
8092;SDS011;4089;52.420;13.334;2024-01-30T12:09:05;31.90;;;7.70;;
8092;SDS011;4089;52.420;13.334;2024-01-30T12:11:44;30.27;;;7.90;;
8092;SDS011;4089;52.420;13.334;2024-01-30T12:14:11;36.03;;;7.40;;
8092;SDS011;4089;52.420;13.334;2024-01-30T12:16:39;31.27;;;6.80;;
8092;SDS011;4089;52.420;13.334;2024-01-30T12:19:07;32.70;;;8.33;;
8092;SDS011;4089;52.420;13.334;2024-01-30T12:21:34;31.17;;;7.90;;
8092;SDS011;4089;52.420;13.334;2024-01-30T12:24:02;33.37;;;8.00;;
8092;SDS011;4089;52.420;13.334;2024-01-30T12:26:29;31.47;;;8.33;;
8092;SDS011;4089;52.420;13.334;2024-01-30T12:28:56;35.10;;;8.73;;
8092;SDS011;4089;52.420;13.334;2024-01-30T12:31:28;29.80;;;7.60;;
8092;SDS011;4089;52.420;13.334;2024-01-30T12:33:55;27.33;;;7.40;;
8092;SDS011;4089;52.420;13.334;2024-01-30T12:36:24;32.77;;;8.37;;
8092;SDS011;4089;52.420;13.334;2024-01-30T12:38:52;33.17;;;8.77;;
8092;SDS011;4089;52.420;13.334;2024-01-30T12:41:19;33.93;;;8.27;;
8092;SDS011;4089;52.420;13.334;2024-01-30T12:43:46;33.17;;;7.37;;
8092;SDS011;4089;52.420;13.334;2024-01-30T12:46:16;32.20;;;8.20;;
8092;SDS011;4089;52.420;13.334;2024-01-30T12:48:43;30.40;;;8.50;;
8092;SDS011;4089;52.420;13.334;2024-01-30T12:51:11;32.67;;;8.23;;
8092;SDS011;4089;52.420;13.334;2024-01-30T12:53:37;33.60;;;7.77;;
8092;SDS011;4089;52.420;13.334;2024-01-30T12:56:04;28.97;;;7.67;;
8092;SDS011;4089;52.420;13.334;2024-01-30T12:58:31;35.43;;;7.97;;
8092;SDS011;4089;52.420;13.334;2024-01-30T13:00:58;34.23;;;9.57;;
8092;SDS011;4089;52.420;13.334;2024-01-30T13:03:25;34.00;;;7.37;;
8092;SDS011;4089;52.420;13.334;2024-01-30T13:05:52;32.00;;;8.10;;
8092;SDS011;4089;52.420;13.334;2024-01-30T13:08:19;28.00;;;7.83;;
8092;SDS011;4089;52.420;13.334;2024-01-30T13:10:46;30.57;;;7.33;;
8092;SDS011;4089;52.420;13.334;2024-01-30T13:13:15;29.53;;;7.50;;
8092;SDS011;4089;52.420;13.334;2024-01-30T13:15:46;30.10;;;7.47;;
8092;SDS011;4089;52.420;13.334;2024-01-30T13:18:14;30.67;;;7.80;;
8092;SDS011;4089;52.420;13.334;2024-01-30T13:20:41;33.57;;;7.60;;
8092;SDS011;4089;52.420;13.334;2024-01-30T13:23:08;35.10;;;8.27;;
8092;SDS011;4089;52.420;13.334;2024-01-30T13:25:35;34.70;;;8.53;;
8092;SDS011;4089;52.420;13.334;2024-01-30T13:28:02;33.60;;;8.10;;
8092;SDS011;4089;52.420;13.334;2024-01-30T13:30:30;39.27;;;7.40;;
8092;SDS011;4089;52.420;13.334;2024-01-30T13:32:57;34.43;;;7.70;;
8092;SDS011;4089;52.420;13.334;2024-01-30T13:35:25;31.70;;;7.57;;
8092;SDS011;4089;52.420;13.334;2024-01-30T13:37:52;31.63;;;7.20;;
8092;SDS011;4089;52.420;13.334;2024-01-30T13:40:18;29.40;;;6.60;;
8092;SDS011;4089;52.420;13.334;2024-01-30T13:42:46;31.23;;;7.17;;
8092;SDS011;4089;52.420;13.334;2024-01-30T13:45:13;37.00;;;7.43;;
8092;SDS011;4089;52.420;13.334;2024-01-30T13:47:39;35.80;;;7.40;;
8092;SDS011;4089;52.420;13.334;2024-01-30T13:50:07;30.13;;;7.67;;
8092;SDS011;4089;52.420;13.334;2024-01-30T13:52:35;37.53;;;7.60;;
8092;SDS011;4089;52.420;13.334;2024-01-30T13:55:10;28.47;;;6.60;;
8092;SDS011;4089;52.420;13.334;2024-01-30T13:57:37;31.23;;;7.60;;
8092;SDS011;4089;52.420;13.334;2024-01-30T14:00:05;32.03;;;6.60;;
8092;SDS011;4089;52.420;13.334;2024-01-30T14:02:35;31.27;;;7.47;;
8092;SDS011;4089;52.420;13.334;2024-01-30T14:05:02;36.93;;;7.33;;
8092;SDS011;4089;52.420;13.334;2024-01-30T14:07:31;35.73;;;7.87;;
8092;SDS011;4089;52.420;13.334;2024-01-30T14:09:58;32.83;;;7.10;;
8092;SDS011;4089;52.420;13.334;2024-01-30T14:12:25;32.37;;;7.30;;
8092;SDS011;4089;52.420;13.334;2024-01-30T14:14:51;36.60;;;7.60;;
8092;SDS011;4089;52.420;13.334;2024-01-30T14:17:18;31.63;;;7.37;;
8092;SDS011;4089;52.420;13.334;2024-01-30T14:19:45;32.43;;;7.60;;
8092;SDS011;4089;52.420;13.334;2024-01-30T14:22:12;30.30;;;7.07;;
8092;SDS011;4089;52.420;13.334;2024-01-30T14:24:39;36.07;;;6.87;;
8092;SDS011;4089;52.420;13.334;2024-01-30T14:27:06;31.63;;;7.50;;
8092;SDS011;4089;52.420;13.334;2024-01-30T14:29:34;30.80;;;7.20;;
8092;SDS011;4089;52.420;13.334;2024-01-30T14:32:01;28.27;;;7.30;;
8092;SDS011;4089;52.420;13.334;2024-01-30T14:34:30;34.80;;;8.20;;
8092;SDS011;4089;52.420;13.334;2024-01-30T14:36:57;34.20;;;7.60;;
8092;SDS011;4089;52.420;13.334;2024-01-30T14:39:24;34.10;;;7.50;;
8092;SDS011;4089;52.420;13.334;2024-01-30T14:41:51;31.77;;;7.43;;
8092;SDS011;4089;52.420;13.334;2024-01-30T14:44:18;29.60;;;7.23;;
8092;SDS011;4089;52.420;13.334;2024-01-30T14:46:45;33.43;;;7.47;;
8092;SDS011;4089;52.420;13.334;2024-01-30T14:49:12;32.33;;;7.60;;
8092;SDS011;4089;52.420;13.334;2024-01-30T14:51:39;32.27;;;7.90;;